sensor_id;sensor_type;location;lat;lon;timestamp;P1;durP1;ratioP1;P2;durP2;ratioP2
12912;SDS011;6524;51.368;11.984;2023-09-08T04:05:13;9.07;;;8.05;;
12912;SDS011;6524;51.368;11.984;2023-09-08T04:10:13;9.68;;;8.68;;
12912;SDS011;6524;51.368;11.984;2023-09-08T04:15:14;9.68;;;8.35;;
12912;SDS011;6524;51.368;11.984;2023-09-08T04:20:14;10.15;;;8.50;;
12912;SDS011;6524;51.368;11.984;2023-09-08T04:25:15;10.15;;;9.15;;
12912;SDS011;6524;51.368;11.984;2023-09-08T04:30:15;10.88;;;9.82;;
12912;SDS011;6524;51.368;11.984;2023-09-08T04:35:15;10.00;;;9.00;;
12912;SDS011;6524;51.368;11.984;2023-09-08T04:40:16;10.23;;;9.23;;
12912;SDS011;6524;51.368;11.984;2023-09-08T04:45:19;10.73;;;9.25;;
12912;SDS011;6524;51.368;11.984;2023-09-08T04:50:19;9.88;;;8.88;;
12912;SDS011;6524;51.368;11.984;2023-09-08T04:55:20;11.03;;;9.83;;
12912;SDS011;6524;51.368;11.984;2023-09-08T05:00:20;9.02;;;8.13;;
12912;SDS011;6524;51.368;11.984;2023-09-08T05:05:20;8.10;;;7.30;;
12912;SDS011;6524;51.368;11.984;2023-09-08T05:10:21;9.50;;;8.38;;
12912;SDS011;6524;51.368;11.984;2023-09-08T05:15:21;9.90;;;8.10;;
12912;SDS011;6524;51.368;11.984;2023-09-08T05:20:22;10.95;;;9.23;;
12912;SDS011;6524;51.368;11.984;2023-09-08T05:25:22;10.98;;;9.88;;
12912;SDS011;6524;51.368;11.984;2023-09-08T05:30:22;10.88;;;9.70;;
12912;SDS011;6524;51.368;11.984;2023-09-08T05:35:23;13.00;;;10.97;;
12912;SDS011;6524;51.368;11.984;2023-09-08T05:40:23;11.40;;;10.30;;
12912;SDS011;6524;51.368;11.984;2023-09-08T05:45:24;10.93;;;9.88;;
12912;SDS011;6524;51.368;11.984;2023-09-08T05:50:25;11.57;;;10.20;;
12912;SDS011;6524;51.368;11.984;2023-09-08T05:55:26;12.02;;;10.65;;
12912;SDS011;6524;51.368;11.984;2023-09-08T06:00:26;22.92;;;12.55;;
12912;SDS011;6524;51.368;11.984;2023-09-08T06:05:26;16.88;;;11.98;;
12912;SDS011;6524;51.368;11.984;2023-09-08T06:10:27;12.93;;;10.93;;
12912;SDS011;6524;51.368;11.984;2023-09-08T06:15:27;12.40;;;11.07;;
12912;SDS011;6524;51.368;11.984;2023-09-08T06:20:27;15.27;;;11.50;;
12912;SDS011;6524;51.368;11.984;2023-09-08T06:25:27;14.00;;;10.77;;
12912;SDS011;6524;51.368;11.984;2023-09-08T06:30:31;12.40;;;10.80;;
12912;SDS011;6524;51.368;11.984;2023-09-08T06:35:31;11.73;;;10.52;;
12912;SDS011;6524;51.368;11.984;2023-09-08T06:40:33;12.98;;;10.73;;
12912;SDS011;6524;51.368;11.984;2023-09-08T06:45:34;11.98;;;10.23;;
12912;SDS011;6524;51.368;11.984;2023-09-08T06:50:34;12.32;;;10.43;;
12912;SDS011;6524;51.368;11.984;2023-09-08T06:55:35;14.13;;;11.15;;
12912;SDS011;6524;51.368;11.984;2023-09-08T07:00:35;12.07;;;10.53;;
12912;SDS011;6524;51.368;11.984;2023-09-08T07:05:35;11.48;;;10.27;;
12912;SDS011;6524;51.368;11.984;2023-09-08T07:10:36;11.90;;;9.57;;
12912;SDS011;6524;51.368;11.984;2023-09-08T07:15:36;13.55;;;9.68;;
12912;SDS011;6524;51.368;11.984;2023-09-08T07:20:36;11.33;;;9.50;;
12912;SDS011;6524;51.368;11.984;2023-09-08T07:25:37;10.97;;;9.27;;
12912;SDS011;6524;51.368;11.984;2023-09-08T07:30:37;10.90;;;9.77;;
12912;SDS011;6524;51.368;11.984;2023-09-08T07:35:38;11.20;;;9.73;;
12912;SDS011;6524;51.368;11.984;2023-09-08T07:40:39;10.27;;;9.27;;
12912;SDS011;6524;51.368;11.984;2023-09-08T07:45:41;11.25;;;9.38;;
12912;SDS011;6524;51.368;11.984;2023-09-08T07:50:41;12.77;;;9.57;;
12912;SDS011;6524;51.368;11.984;2023-09-08T07:55:42;9.38;;;8.20;;
12912;SDS011;6524;51.368;11.984;2023-09-08T08:00:42;10.80;;;9.70;;
12912;SDS011;6524;51.368;11.984;2023-09-08T08:05:42;10.20;;;8.90;;
12912;SDS011;6524;51.368;11.984;2023-09-08T08:10:43;9.67;;;8.70;;
12912;SDS011;6524;51.368;11.984;2023-09-08T08:15:43;11.43;;;8.73;;
12912;SDS011;6524;51.368;11.984;2023-09-08T08:20:47;11.35;;;9.70;;
12912;SDS011;6524;51.368;11.984;2023-09-08T08:25:48;10.57;;;8.87;;
12912;SDS011;6524;51.368;11.984;2023-09-08T08:30:49;9.38;;;8.40;;
12912;SDS011;6524;51.368;11.984;2023-09-08T08:35:49;11.20;;;8.50;;
12912;SDS011;6524;51.368;11.984;2023-09-08T08:40:50;10.32;;;7.25;;
12912;SDS011;6524;51.368;11.984;2023-09-08T08:45:51;9.35;;;7.75;;
12912;SDS011;6524;51.368;11.984;2023-09-08T08:50:52;8.77;;;7.70;;
12912;SDS011;6524;51.368;11.984;2023-09-08T08:55:53;8.07;;;7.28;;
12912;SDS011;6524;51.368;11.984;2023-09-08T09:00:57;7.70;;;6.88;;
12912;SDS011;6524;51.368;11.984;2023-09-08T09:05:59;7.95;;;7.20;;
12912;SDS011;6524;51.368;11.984;2023-09-08T09:11:01;7.90;;;7.13;;
12912;SDS011;6524;51.368;11.984;2023-09-08T09:16:02;10.15;;;6.88;;
12912;SDS011;6524;51.368;11.984;2023-09-08T09:21:03;7.40;;;6.80;;
12912;SDS011;6524;51.368;11.984;2023-09-08T09:26:03;6.88;;;6.32;;
12912;SDS011;6524;51.368;11.984;2023-09-08T09:31:04;6.67;;;6.10;;
12912;SDS011;6524;51.368;11.984;2023-09-08T09:36:04;6.90;;;6.30;;
12912;SDS011;6524;51.368;11.984;2023-09-08T09:41:05;6.78;;;6.18;;
12912;SDS011;6524;51.368;11.984;2023-09-08T09:46:09;6.57;;;5.87;;
12912;SDS011;6524;51.368;11.984;2023-09-08T09:51:16;5.90;;;5.28;;
12912;SDS011;6524;51.368;11.984;2023-09-08T09:56:17;6.15;;;5.65;;
12912;SDS011;6524;51.368;11.984;2023-09-08T10:01:18;6.28;;;5.68;;
12912;SDS011;6524;51.368;11.984;2023-09-08T10:06:19;6.28;;;5.68;;
12912;SDS011;6524;51.368;11.984;2023-09-08T10:11:20;6.32;;;5.72;;
12912;SDS011;6524;51.368;11.984;2023-09-08T10:16:22;7.13;;;6.30;;
12912;SDS011;6524;51.368;11.984;2023-09-08T10:21:27;6.63;;;5.82;;
12912;SDS011;6524;51.368;11.984;2023-09-08T10:26:30;7.13;;;5.68;;
12912;SDS011;6524;51.368;11.984;2023-09-08T10:31:32;6.88;;;5.47;;
12912;SDS011;6524;51.368;11.984;2023-09-08T10:36:34;5.90;;;5.28;;
12912;SDS011;6524;51.368;11.984;2023-09-08T10:41:34;5.80;;;5.30;;
12912;SDS011;6524;51.368;11.984;2023-09-08T10:46:35;7.40;;;5.30;;
12912;SDS011;6524;51.368;11.984;2023-09-08T10:51:36;6.28;;;5.65;;
12912;SDS011;6524;51.368;11.984;2023-09-08T10:56:49;6.40;;;5.32;;
12912;SDS011;6524;51.368;11.984;2023-09-08T11:01:54;6.63;;;5.82;;
12912;SDS011;6524;51.368;11.984;2023-09-08T11:06:58;6.20;;;5.70;;
12912;SDS011;6524;51.368;11.984;2023-09-08T11:12:00;6.50;;;5.78;;
12912;SDS011;6524;51.368;11.984;2023-09-08T11:17:03;6.90;;;6.20;;
12912;SDS011;6524;51.368;11.984;2023-09-08T11:22:03;7.80;;;6.47;;
12912;SDS011;6524;51.368;11.984;2023-09-08T11:27:04;8.50;;;5.80;;
12912;SDS011;6524;51.368;11.984;2023-09-08T11:32:05;6.38;;;5.70;;
12912;SDS011;6524;51.368;11.984;2023-09-08T11:37:12;6.53;;;5.90;;
12912;SDS011;6524;51.368;11.984;2023-09-08T11:42:15;6.63;;;6.05;;
12912;SDS011;6524;51.368;11.984;2023-09-08T11:47:17;8.77;;;6.32;;
12912;SDS011;6524;51.368;11.984;2023-09-08T11:52:17;6.47;;;5.60;;
12912;SDS011;6524;51.368;11.984;2023-09-08T11:57:18;7.30;;;6.57;;
12912;SDS011;6524;51.368;11.984;2023-09-08T12:02:21;6.22;;;5.55;;
12912;SDS011;6524;51.368;11.984;2023-09-08T12:07:21;5.87;;;5.07;;
12912;SDS011;6524;51.368;11.984;2023-09-08T12:12:21;5.18;;;4.78;;
12912;SDS011;6524;51.368;11.984;2023-09-08T12:17:22;5.65;;;5.15;;
12912;SDS011;6524;51.368;11.984;2023-09-08T12:22:24;6.22;;;5.63;;
12912;SDS011;6524;51.368;11.984;2023-09-08T12:27:28;7.00;;;5.15;;
12912;SDS011;6524;51.368;11.984;2023-09-08T12:32:29;5.72;;;4.90;;
12912;SDS011;6524;51.368;11.984;2023-09-08T12:37:32;5.38;;;4.88;;
12912;SDS011;6524;51.368;11.984;2023-09-08T12:42:33;6.57;;;4.75;;
12912;SDS011;6524;51.368;11.984;2023-09-08T12:47:33;4.95;;;4.55;;
12912;SDS011;6524;51.368;11.984;2023-09-08T12:52:35;5.78;;;5.03;;
12912;SDS011;6524;51.368;11.984;2023-09-08T12:57:36;4.80;;;4.40;;
12912;SDS011;6524;51.368;11.984;2023-09-08T13:02:36;5.68;;;5.13;;
12912;SDS011;6524;51.368;11.984;2023-09-08T13:07:37;5.35;;;4.68;;
12912;SDS011;6524;51.368;11.984;2023-09-08T13:12:37;5.45;;;4.55;;
12912;SDS011;6524;51.368;11.984;2023-09-08T13:17:38;6.05;;;4.93;;
12912;SDS011;6524;51.368;11.984;2023-09-08T13:22:38;5.07;;;4.57;;
12912;SDS011;6524;51.368;11.984;2023-09-08T13:27:42;6.33;;;4.90;;
12912;SDS011;6524;51.368;11.984;2023-09-08T13:32:43;5.80;;;5.25;;
12912;SDS011;6524;51.368;11.984;2023-09-08T13:37:44;5.90;;;5.03;;
12912;SDS011;6524;51.368;11.984;2023-09-08T13:42:44;6.18;;;4.65;;
12912;SDS011;6524;51.368;11.984;2023-09-08T13:47:45;6.05;;;5.45;;
12912;SDS011;6524;51.368;11.984;2023-09-08T13:52:45;6.57;;;4.78;;
12912;SDS011;6524;51.368;11.984;2023-09-08T13:57:45;5.32;;;4.82;;
12912;SDS011;6524;51.368;11.984;2023-09-08T14:02:46;5.85;;;5.28;;
12912;SDS011;6524;51.368;11.984;2023-09-08T14:07:47;5.65;;;5.03;;
12912;SDS011;6524;51.368;11.984;2023-09-08T14:12:47;5.70;;;5.20;;
12912;SDS011;6524;51.368;11.984;2023-09-08T14:17:48;6.00;;;5.32;;
12912;SDS011;6524;51.368;11.984;2023-09-08T14:22:49;6.03;;;5.45;;
12912;SDS011;6524;51.368;11.984;2023-09-08T14:27:50;5.65;;;5.10;;
12912;SDS011;6524;51.368;11.984;2023-09-08T14:32:50;4.97;;;4.57;;
12912;SDS011;6524;51.368;11.984;2023-09-08T14:37:51;5.97;;;5.00;;
12912;SDS011;6524;51.368;11.984;2023-09-08T14:42:51;6.03;;;4.95;;
12912;SDS011;6524;51.368;11.984;2023-09-08T14:47:51;5.33;;;4.83;;
12912;SDS011;6524;51.368;11.984;2023-09-08T14:52:52;5.63;;;4.93;;
12912;SDS011;6524;51.368;11.984;2023-09-08T14:57:52;6.07;;;4.77;;
12912;SDS011;6524;51.368;11.984;2023-09-08T15:02:53;6.00;;;5.50;;
12912;SDS011;6524;51.368;11.984;2023-09-08T15:07:53;5.43;;;4.57;;
12912;SDS011;6524;51.368;11.984;2023-09-08T15:12:54;6.03;;;4.82;;
12912;SDS011;6524;51.368;11.984;2023-09-08T15:17:55;5.72;;;5.18;;
12912;SDS011;6524;51.368;11.984;2023-09-08T15:22:55;6.00;;;4.93;;
12912;SDS011;6524;51.368;11.984;2023-09-08T15:27:56;5.82;;;5.05;;
12912;SDS011;6524;51.368;11.984;2023-09-08T15:32:57;7.88;;;5.30;;
12912;SDS011;6524;51.368;11.984;2023-09-08T15:38:01;5.72;;;5.18;;
12912;SDS011;6524;51.368;11.984;2023-09-08T15:43:02;5.80;;;5.20;;
12912;SDS011;6524;51.368;11.984;2023-09-08T15:48:02;5.25;;;4.75;;
12912;SDS011;6524;51.368;11.984;2023-09-08T15:53:03;6.28;;;5.07;;
12912;SDS011;6524;51.368;11.984;2023-09-08T15:58:04;5.95;;;4.90;;
12912;SDS011;6524;51.368;11.984;2023-09-08T16:03:04;5.55;;;4.88;;
12912;SDS011;6524;51.368;11.984;2023-09-08T16:08:05;6.13;;;5.53;;
12912;SDS011;6524;51.368;11.984;2023-09-08T16:13:06;5.50;;;5.00;;
12912;SDS011;6524;51.368;11.984;2023-09-08T16:18:06;6.53;;;5.10;;
12912;SDS011;6524;51.368;11.984;2023-09-08T16:23:09;6.18;;;5.57;;
12912;SDS011;6524;51.368;11.984;2023-09-08T16:28:10;6.03;;;5.50;;
12912;SDS011;6524;51.368;11.984;2023-09-08T16:33:10;6.72;;;4.97;;
12912;SDS011;6524;51.368;11.984;2023-09-08T16:38:12;5.38;;;4.88;;
12912;SDS011;6524;51.368;11.984;2023-09-08T16:43:15;5.50;;;5.00;;
12912;SDS011;6524;51.368;11.984;2023-09-08T16:48:16;5.57;;;5.07;;
12912;SDS011;6524;51.368;11.984;2023-09-08T16:53:16;6.00;;;5.30;;
12912;SDS011;6524;51.368;11.984;2023-09-08T16:58:17;5.40;;;4.90;;
12912;SDS011;6524;51.368;11.984;2023-09-08T17:03:17;5.90;;;5.20;;
12912;SDS011;6524;51.368;11.984;2023-09-08T17:08:19;5.82;;;5.15;;
12912;SDS011;6524;51.368;11.984;2023-09-08T17:13:19;7.22;;;5.53;;
12912;SDS011;6524;51.368;11.984;2023-09-08T17:18:20;7.32;;;5.20;;
12912;SDS011;6524;51.368;11.984;2023-09-08T17:23:20;5.82;;;5.18;;
12912;SDS011;6524;51.368;11.984;2023-09-08T17:28:22;6.13;;;5.53;;
12912;SDS011;6524;51.368;11.984;2023-09-08T17:33:22;6.00;;;5.50;;
12912;SDS011;6524;51.368;11.984;2023-09-08T17:38:22;6.80;;;5.60;;
12912;SDS011;6524;51.368;11.984;2023-09-08T17:43:23;8.00;;;5.50;;
12912;SDS011;6524;51.368;11.984;2023-09-08T17:48:23;6.75;;;5.95;;
12912;SDS011;6524;51.368;11.984;2023-09-08T17:53:24;6.45;;;5.85;;
12912;SDS011;6524;51.368;11.984;2023-09-08T17:58:24;8.20;;;6.00;;
12912;SDS011;6524;51.368;11.984;2023-09-08T18:03:24;7.22;;;5.35;;
12912;SDS011;6524;51.368;11.984;2023-09-08T18:08:25;7.70;;;5.63;;
12912;SDS011;6524;51.368;11.984;2023-09-08T18:13:26;6.55;;;5.75;;
12912;SDS011;6524;51.368;11.984;2023-09-08T18:18:26;8.05;;;6.05;;
12912;SDS011;6524;51.368;11.984;2023-09-08T18:23:27;7.88;;;5.65;;
12912;SDS011;6524;51.368;11.984;2023-09-08T18:28:27;6.60;;;5.50;;
12912;SDS011;6524;51.368;11.984;2023-09-08T18:33:27;6.40;;;5.80;;
12912;SDS011;6524;51.368;11.984;2023-09-08T18:38:29;6.55;;;5.88;;
12912;SDS011;6524;51.368;11.984;2023-09-08T18:43:31;7.97;;;5.78;;
12912;SDS011;6524;51.368;11.984;2023-09-08T18:48:32;7.22;;;6.53;;
12912;SDS011;6524;51.368;11.984;2023-09-08T18:53:32;8.48;;;6.32;;
12912;SDS011;6524;51.368;11.984;2023-09-08T18:58:34;6.53;;;5.90;;
12912;SDS011;6524;51.368;11.984;2023-09-08T19:03:37;6.93;;;6.20;;
12912;SDS011;6524;51.368;11.984;2023-09-08T19:08:37;7.82;;;6.75;;
12912;SDS011;6524;51.368;11.984;2023-09-08T19:13:38;8.05;;;7.25;;
12912;SDS011;6524;51.368;11.984;2023-09-08T19:18:38;7.43;;;6.72;;
12912;SDS011;6524;51.368;11.984;2023-09-08T19:23:38;7.30;;;6.60;;
12912;SDS011;6524;51.368;11.984;2023-09-08T19:28:39;8.60;;;7.73;;
12912;SDS011;6524;51.368;11.984;2023-09-08T19:33:39;10.05;;;8.32;;
12912;SDS011;6524;51.368;11.984;2023-09-08T19:38:41;7.75;;;6.95;;
12912;SDS011;6524;51.368;11.984;2023-09-08T19:43:41;8.15;;;6.50;;
12912;SDS011;6524;51.368;11.984;2023-09-08T19:48:42;7.18;;;6.45;;
12912;SDS011;6524;51.368;11.984;2023-09-08T19:53:42;10.77;;;7.70;;
12912;SDS011;6524;51.368;11.984;2023-09-08T19:58:42;8.83;;;7.80;;
12912;SDS011;6524;51.368;11.984;2023-09-08T20:03:46;9.02;;;6.82;;
12912;SDS011;6524;51.368;11.984;2023-09-08T20:08:46;10.13;;;7.55;;
12912;SDS011;6524;51.368;11.984;2023-09-08T20:13:47;7.88;;;7.10;;
12912;SDS011;6524;51.368;11.984;2023-09-08T20:18:47;9.05;;;7.00;;
12912;SDS011;6524;51.368;11.984;2023-09-08T20:23:48;8.23;;;7.13;;
12912;SDS011;6524;51.368;11.984;2023-09-08T20:28:48;8.20;;;7.03;;
12912;SDS011;6524;51.368;11.984;2023-09-08T20:33:49;8.50;;;7.10;;
12912;SDS011;6524;51.368;11.984;2023-09-08T20:38:49;8.75;;;7.35;;
12912;SDS011;6524;51.368;11.984;2023-09-08T20:43:49;7.88;;;7.07;;
12912;SDS011;6524;51.368;11.984;2023-09-08T20:48:50;9.13;;;7.40;;
12912;SDS011;6524;51.368;11.984;2023-09-08T20:53:50;8.95;;;7.30;;
12912;SDS011;6524;51.368;11.984;2023-09-08T20:58:51;8.30;;;7.32;;
12912;SDS011;6524;51.368;11.984;2023-09-08T21:03:51;9.02;;;7.65;;
12912;SDS011;6524;51.368;11.984;2023-09-08T21:08:52;7.63;;;6.90;;
12912;SDS011;6524;51.368;11.984;2023-09-08T21:13:52;8.30;;;7.50;;
12912;SDS011;6524;51.368;11.984;2023-09-08T21:18:53;9.10;;;8.27;;
12912;SDS011;6524;51.368;11.984;2023-09-08T21:23:53;9.23;;;8.32;;
12912;SDS011;6524;51.368;11.984;2023-09-08T21:28:54;12.55;;;9.18;;
12912;SDS011;6524;51.368;11.984;2023-09-08T21:33:54;9.55;;;8.65;;
12912;SDS011;6524;51.368;11.984;2023-09-08T21:38:54;12.82;;;8.57;;
12912;SDS011;6524;51.368;11.984;2023-09-08T21:43:55;9.52;;;8.27;;
12912;SDS011;6524;51.368;11.984;2023-09-08T21:48:55;9.40;;;8.00;;
12912;SDS011;6524;51.368;11.984;2023-09-08T21:53:56;10.48;;;8.10;;
12912;SDS011;6524;51.368;11.984;2023-09-08T21:58:56;8.73;;;7.83;;
12912;SDS011;6524;51.368;11.984;2023-09-08T22:03:56;9.50;;;7.78;;
12912;SDS011;6524;51.368;11.984;2023-09-08T22:08:56;10.23;;;8.32;;
12912;SDS011;6524;51.368;11.984;2023-09-08T22:13:57;9.23;;;8.23;;
12912;SDS011;6524;51.368;11.984;2023-09-08T22:18:58;9.23;;;8.07;;
12912;SDS011;6524;51.368;11.984;2023-09-08T22:23:59;9.70;;;8.13;;
12912;SDS011;6524;51.368;11.984;2023-09-08T22:28:59;9.15;;;8.20;;
12912;SDS011;6524;51.368;11.984;2023-09-08T22:34:00;10.50;;;8.35;;
12912;SDS011;6524;51.368;11.984;2023-09-08T22:39:01;9.27;;;8.20;;
12912;SDS011;6524;51.368;11.984;2023-09-08T22:44:02;11.13;;;8.77;;
12912;SDS011;6524;51.368;11.984;2023-09-08T22:49:03;10.25;;;8.10;;
12912;SDS011;6524;51.368;11.984;2023-09-08T22:54:04;9.43;;;7.90;;
12912;SDS011;6524;51.368;11.984;2023-09-08T22:59:04;10.75;;;8.55;;
12912;SDS011;6524;51.368;11.984;2023-09-08T23:04:04;10.60;;;8.27;;
12912;SDS011;6524;51.368;11.984;2023-09-08T23:09:05;9.75;;;7.75;;
12912;SDS011;6524;51.368;11.984;2023-09-08T23:14:05;11.47;;;8.80;;
12912;SDS011;6524;51.368;11.984;2023-09-08T23:19:05;10.68;;;8.32;;
12912;SDS011;6524;51.368;11.984;2023-09-08T23:24:06;9.63;;;8.30;;
12912;SDS011;6524;51.368;11.984;2023-09-08T23:29:07;10.63;;;8.70;;
12912;SDS011;6524;51.368;11.984;2023-09-08T23:34:07;10.07;;;8.40;;
12912;SDS011;6524;51.368;11.984;2023-09-08T23:39:12;8.85;;;8.00;;
12912;SDS011;6524;51.368;11.984;2023-09-08T23:44:13;10.63;;;8.27;;
12912;SDS011;6524;51.368;11.984;2023-09-08T23:49:13;11.10;;;8.30;;
12912;SDS011;6524;51.368;11.984;2023-09-08T23:54:14;10.30;;;9.25;;
12912;SDS011;6524;51.368;11.984;2023-09-08T23:59:14;11.25;;;9.90;;
